Time;durP1;ratioP1;P1;durP2;ratioP2;P2;SDS_P1;SDS_P2;PMS_P1;PMS_P2;Temp;Humidity;BMP_temperature;BMP_pressure;BME280_temperature;BME280_humidity;BME280_pressure;Samples;Min_cycle;Max_cycle;Signal;HPM_P1;HPM_P2
2022/12/14 00:00:47;;;;;;;99.47;36.53;;;;;;;0.32;100.00;98137.00;5007008;28;20116;-82
2022/12/14 00:03:14;;;;;;;110.53;38.28;;;;;;;0.42;100.00;98155.81;4986828;28;20026;-84
2022/12/14 00:05:40;;;;;;;109.05;38.10;;;;;;;0.48;100.00;98156.94;5018782;28;20068;-81
2022/12/14 00:08:08;;;;;;;110.00;37.67;;;;;;;0.38;100.00;98153.66;4987411;28;20033;-82
2022/12/14 00:10:35;;;;;;;112.82;37.58;;;;;;;0.16;100.00;98136.88;5020129;28;20506;-82
2022/12/14 00:13:02;;;;;;;105.38;37.25;;;;;;;0.39;100.00;98156.09;4986487;28;20030;-82
2022/12/14 00:15:28;;;;;;;108.50;36.00;;;;;;;0.40;100.00;98147.41;5023401;28;20124;-82
2022/12/14 00:17:54;;;;;;;107.28;38.85;;;;;;;0.54;100.00;98151.19;5022215;28;20088;-81
2022/12/14 00:20:19;;;;;;;111.20;37.30;;;;;;;0.45;100.00;98148.72;5004591;28;20029;-81
2022/12/14 00:22:45;;;;;;;118.70;39.05;;;;;;;0.54;100.00;98166.69;5001958;28;20083;-82
2022/12/14 00:25:10;;;;;;;105.25;35.40;;;;;;;0.61;100.00;98161.72;5019283;28;20043;-82
2022/12/14 00:27:44;;;;;;;100.63;35.00;;;;;;;0.42;100.00;98119.66;5007800;28;20033;-83
2022/12/14 00:30:15;;;;;;;116.55;39.00;;;;;;;0.74;100.00;98150.16;5000060;28;20058;-83
2022/12/14 00:32:41;;;;;;;115.15;37.78;;;;;;;0.48;100.00;98138.06;5018381;28;20447;-82
2022/12/14 00:35:09;;;;;;;101.93;34.88;;;;;;;0.50;100.00;98146.47;5023886;28;20050;-83
2022/12/14 00:37:36;;;;;;;98.05;35.15;;;;;;;0.30;100.00;98141.50;5001861;28;20041;-82
2022/12/14 00:40:04;;;;;;;102.32;33.70;;;;;;;0.22;100.00;98133.72;5023682;28;20033;-80
2022/12/14 00:42:30;;;;;;;107.03;35.70;;;;;;;0.26;100.00;98143.56;5000705;28;20111;-80
2022/12/14 00:44:55;;;;;;;112.53;36.33;;;;;;;0.22;100.00;98147.41;5003136;28;20049;-81
2022/12/14 00:47:21;;;;;;;110.05;36.38;;;;;;;0.21;100.00;98132.09;5007567;28;20041;-81
2022/12/14 00:49:48;;;;;;;119.30;37.83;;;;;;;0.19;100.00;98131.41;5017819;28;20113;-80
2022/12/14 00:52:14;;;;;;;107.50;36.40;;;;;;;0.24;100.00;98144.69;4988689;28;20108;-81
2022/12/14 00:54:39;;;;;;;106.75;35.88;;;;;;;0.31;100.00;98144.91;5016068;28;20034;-82
2022/12/14 00:57:05;;;;;;;113.45;37.30;;;;;;;0.27;100.00;98141.81;5025978;28;20072;-81
2022/12/14 00:59:31;;;;;;;103.10;34.92;;;;;;;-0.05;100.00;98112.22;5018824;28;20030;-81
2022/12/14 01:01:56;;;;;;;98.88;34.72;;;;;;;0.03;100.00;98139.84;5022530;28;20451;-80
2022/12/14 01:04:23;;;;;;;109.15;34.92;;;;;;;0.05;100.00;98148.25;5000469;28;20033;-80
2022/12/14 01:06:51;;;;;;;96.10;34.05;;;;;;;-0.17;100.00;98140.00;5016598;28;20109;-81
2022/12/14 01:09:19;;;;;;;104.80;33.42;;;;;;;-0.07;100.00;98134.78;5019495;28;20087;-81
2022/12/14 01:11:44;;;;;;;93.18;33.25;;;;;;;-0.28;100.00;98125.56;4986225;28;20037;-84
2022/12/14 01:14:12;;;;;;;107.57;34.60;;;;;;;-0.22;100.00;98132.69;5021680;28;20118;-82
2022/12/14 01:16:38;;;;;;;98.07;33.03;;;;;;;-0.35;100.00;98132.28;5002358;28;20034;-82
2022/12/14 01:19:03;;;;;;;101.18;34.40;;;;;;;-0.26;100.00;98146.06;5002630;28;20030;-81
2022/12/14 01:21:30;;;;;;;97.40;33.72;;;;;;;-0.28;100.00;98133.31;4989375;28;20025;-82
2022/12/14 01:24:01;;;;;;;95.65;34.10;;;;;;;-0.32;100.00;98131.97;5023214;28;20113;-83
2022/12/14 01:26:29;;;;;;;98.93;32.40;;;;;;;-0.33;100.00;98140.69;5000269;28;20030;-83
2022/12/14 01:28:57;;;;;;;99.68;33.80;;;;;;;-0.40;100.00;98129.31;5003501;28;20550;-80
2022/12/14 01:31:26;;;;;;;103.55;35.60;;;;;;;-0.50;100.00;98140.50;5010526;28;20108;-81
2022/12/14 01:33:52;;;;;;;101.07;33.70;;;;;;;-0.66;100.00;98119.72;5006606;28;20025;-80
2022/12/14 01:36:24;;;;;;;100.28;33.10;;;;;;;-0.48;100.00;98130.06;5009112;28;20041;-81
2022/12/14 01:38:55;;;;;;;97.72;33.60;;;;;;;-0.52;100.00;98142.41;5006777;28;20104;-81
2022/12/14 01:41:38;;;;;;;98.95;33.75;;;;;;;-0.64;100.00;98133.25;5003351;28;20431;-82
2022/12/14 01:44:06;;;;;;;104.80;34.63;;;;;;;-0.60;100.00;98130.25;5025357;28;20026;-80
2022/12/14 01:46:52;;;;;;;103.68;35.20;;;;;;;-0.70;100.00;98134.66;5026612;28;20496;-82
2022/12/14 01:49:25;;;;;;;96.00;32.85;;;;;;;-0.90;100.00;98124.44;5018046;28;20041;-81
2022/12/14 01:51:59;;;;;;;107.38;35.40;;;;;;;-0.95;100.00;98110.41;5009077;28;20033;-81
2022/12/14 01:54:30;;;;;;;97.82;34.35;;;;;;;-1.26;100.00;98093.47;5024393;28;20029;-83
2022/12/14 01:56:56;;;;;;;99.28;32.88;;;;;;;-1.09;100.00;98102.19;5000695;28;20084;-81
2022/12/14 01:59:29;;;;;;;91.57;31.90;;;;;;;-0.60;100.00;98129.44;5020549;28;20022;-80
2022/12/14 02:01:56;;;;;;;87.87;30.83;;;;;;;-0.68;100.00;98119.06;5023689;28;20022;-83
2022/12/14 02:04:22;;;;;;;91.93;31.27;;;;;;;-0.98;100.00;98108.09;5002933;28;21341;-80
2022/12/14 02:06:50;;;;;;;90.97;30.55;;;;;;;-1.07;100.00;98110.56;4987980;28;20497;-78
2022/12/14 02:09:21;;;;;;;88.25;29.42;;;;;;;-1.13;100.00;98107.75;5007838;28;20443;-81
2022/12/14 02:11:58;;;;;;;84.18;29.13;;;;;;;-1.09;100.00;98120.22;5000609;28;20365;-80
2022/12/14 02:14:24;;;;;;;82.07;28.15;;;;;;;-1.39;100.00;98116.13;5027837;28;20033;-78
2022/12/14 02:16:52;;;;;;;81.80;29.10;;;;;;;-1.38;100.00;98110.81;5018386;28;20029;-80
2022/12/14 02:19:18;;;;;;;79.72;29.15;;;;;;;-1.43;100.00;98118.16;5006534;28;20026;-81
2022/12/14 02:22:13;;;;;;;75.82;24.63;;;;;;;-1.21;100.00;98121.34;5019102;28;20034;-80
2022/12/14 02:25:05;;;;;;;77.32;26.48;;;;;;;-1.45;100.00;98104.63;4997759;28;20049;-80
2022/12/14 02:27:31;;;;;;;75.13;25.77;;;;;;;-1.30;100.00;98113.50;5019969;28;20438;-81
2022/12/14 02:30:05;;;;;;;69.38;23.05;;;;;;;-1.21;100.00;98103.31;5024474;28;20041;-79
2022/12/14 02:33:02;;;;;;;72.90;24.08;;;;;;;-1.60;100.00;98086.25;5003218;28;20033;-81
2022/12/14 02:35:36;;;;;;;63.65;23.05;;;;;;;-1.49;100.00;98108.44;4990521;28;20125;-80
2022/12/14 02:38:23;;;;;;;65.97;22.80;;;;;;;-1.26;100.00;98108.91;5003782;28;20430;-83
2022/12/14 02:41:01;;;;;;;70.93;23.15;;;;;;;-1.33;100.00;98110.41;4989585;28;20040;-80
2022/12/14 02:43:36;;;;;;;68.15;20.55;;;;;;;-1.23;100.00;98112.94;5005815;28;20052;-79
2022/12/14 02:46:31;;;;;;;55.15;20.50;;;;;;;-1.19;100.00;98111.69;4989940;28;20498;-80
2022/12/14 02:49:08;;;;;;;54.90;21.38;;;;;;;-1.24;100.00;98104.41;5019583;28;20037;-82
2022/12/14 02:51:37;;;;;;;54.65;20.15;;;;;;;-1.36;100.00;98106.38;5004886;28;20030;-80
2022/12/14 02:54:22;;;;;;;60.80;20.25;;;;;;;-1.32;100.00;98112.03;5000173;28;20034;-78
2022/12/14 02:56:59;;;;;;;66.07;19.33;;;;;;;-1.46;100.00;98090.13;5024703;28;20064;-80
2022/12/14 02:59:33;;;;;;;48.85;18.63;;;;;;;-1.28;100.00;98097.13;5003932;28;20499;-81
2022/12/14 03:02:04;;;;;;;46.80;17.33;;;;;;;-1.19;100.00;98111.69;5019274;28;20068;-80
2022/12/14 03:04:30;;;;;;;45.00;17.20;;;;;;;-1.30;100.00;98108.38;4987156;28;20025;-81
2022/12/14 03:07:20;;;;;;;47.35;17.45;;;;;;;-1.33;100.00;98072.63;5005177;28;20048;-80
2022/12/14 03:09:46;;;;;;;49.75;18.70;;;;;;;-1.16;100.00;98103.72;5021403;28;20085;-80
2022/12/14 03:12:13;;;;;;;44.58;16.70;;;;;;;-1.44;100.00;98114.78;5006945;28;20038;-80
2022/12/14 03:14:49;;;;;;;48.25;17.25;;;;;;;-1.17;100.00;98112.41;5006483;28;20028;-79
2022/12/14 03:17:19;;;;;;;42.13;16.70;;;;;;;-1.04;100.00;98112.06;5009106;28;20029;-81
2022/12/14 03:20:04;;;;;;;43.28;16.92;;;;;;;-0.93;100.00;98108.47;4987092;28;20025;-83
2022/12/14 03:22:42;;;;;;;43.22;16.23;;;;;;;-1.08;100.00;98097.81;5000796;28;20120;-81
2022/12/14 03:25:13;;;;;;;38.13;15.52;;;;;;;-1.16;100.00;98089.06;5001081;28;20034;-83
2022/12/14 03:28:07;;;;;;;41.28;14.77;;;;;;;-1.15;100.00;98100.19;5006818;28;20036;-84
2022/12/14 03:30:37;;;;;;;37.78;15.57;;;;;;;-1.33;100.00;98107.84;5000170;28;20108;-82
2022/12/14 03:33:08;;;;;;;40.85;15.68;;;;;;;-1.11;100.00;98111.81;5004940;28;20033;-81
2022/12/14 03:35:41;;;;;;;36.10;14.43;;;;;;;-1.06;100.00;98107.03;4990152;28;20092;-82
2022/12/14 03:38:19;;;;;;;40.63;16.70;;;;;;;-1.30;100.00;98090.34;5004849;28;20427;-82
2022/12/14 03:41:23;;;;;;;41.53;15.55;;;;;;;-1.27;100.00;98119.34;5001969;28;20087;-82
2022/12/14 03:43:57;;;;;;;44.88;16.33;;;;;;;-1.48;100.00;98110.06;5000966;28;20499;-82
2022/12/14 03:46:51;;;;;;;42.80;16.98;;;;;;;-1.54;100.00;98119.13;4987432;28;20029;-82
2022/12/14 03:49:23;;;;;;;36.55;14.93;;;;;;;-1.64;100.00;98101.16;4972293;28;20061;-82
2022/12/14 03:51:59;;;;;;;45.60;16.77;;;;;;;-1.25;100.00;98097.66;5004323;28;20424;-82
2022/12/14 03:54:32;;;;;;;34.67;15.40;;;;;;;-1.40;100.00;98111.94;5005396;28;20803;-82
2022/12/14 03:57:29;;;;;;;37.22;14.00;;;;;;;-1.21;100.00;98111.03;4985886;28;20038;-82
2022/12/14 04:00:03;;;;;;;34.72;13.70;;;;;;;-1.09;100.00;98109.09;5003441;28;20053;-84
2022/12/14 04:02:41;;;;;;;37.00;14.90;;;;;;;-1.18;100.00;98095.28;5001756;28;21452;-81
2022/12/14 04:05:10;;;;;;;32.28;12.65;;;;;;;-1.26;100.00;98097.78;4984327;28;20026;-82
2022/12/14 04:08:22;;;;;;;32.83;13.50;;;;;;;-1.11;100.00;98093.78;4977640;28;20044;-83
2022/12/14 04:19:34;;;;;;;29.80;12.93;;;;;;;-0.84;100.00;98112.75;4997684;28;20031;-81
2022/12/14 04:22:11;;;;;;;27.65;12.52;;;;;;;-1.02;100.00;98068.94;4976564;28;20042;-80
2022/12/14 04:27:36;;;;;;;25.60;12.10;;;;;;;-0.97;100.00;98094.28;5000483;28;20476;-81
2022/12/14 04:30:05;;;;;;;32.90;12.18;;;;;;;-0.73;100.00;98093.72;5000943;28;20042;-81
2022/12/14 04:32:36;;;;;;;32.38;12.40;;;;;;;-0.76;100.00;98063.91;5001972;28;20113;-81
2022/12/14 04:35:31;;;;;;;23.13;11.25;;;;;;;-0.57;100.00;98098.25;4999948;28;20030;-81
2022/12/14 04:38:09;;;;;;;24.13;11.32;;;;;;;-0.51;100.00;98092.47;4983985;28;20988;-82
2022/12/14 04:40:45;;;;;;;30.38;13.15;;;;;;;-0.45;100.00;98078.19;4974883;28;20034;-80
2022/12/14 04:43:15;;;;;;;28.70;12.38;;;;;;;-0.47;100.00;98085.28;4999600;28;20076;-81
2022/12/14 04:46:03;;;;;;;30.02;12.18;;;;;;;-0.26;100.00;98092.69;4997876;28;20034;-81
2022/12/14 04:48:39;;;;;;;30.60;12.32;;;;;;;-0.17;100.00;98103.91;5000133;28;20037;-81
2022/12/14 04:51:19;;;;;;;31.85;12.70;;;;;;;0.05;100.00;98107.78;5002518;28;20037;-82
2022/12/14 04:53:49;;;;;;;30.50;12.07;;;;;;;0.30;100.00;98095.03;5021906;28;20036;-82
2022/12/14 04:56:21;;;;;;;29.80;12.27;;;;;;;0.14;100.00;98062.22;5021878;28;20076;-80
2022/12/14 04:58:48;;;;;;;28.85;12.15;;;;;;;0.53;100.00;98112.59;5007372;28;20026;-80
2022/12/14 05:01:28;;;;;;;25.00;11.23;;;;;;;0.64;100.00;98111.53;5025965;28;20083;-80
2022/12/14 05:04:13;;;;;;;28.60;10.82;;;;;;;0.74;100.00;98111.41;4990430;28;20030;-82
2022/12/14 05:06:50;;;;;;;25.10;10.32;;;;;;;0.69;100.00;98084.28;5025656;28;20080;-82
2022/12/14 05:09:37;;;;;;;23.98;9.75;;;;;;;0.77;100.00;98095.59;5007593;28;20021;-84
2022/12/14 05:12:06;;;;;;;26.67;10.38;;;;;;;0.93;100.00;98105.22;5021691;28;20030;-81
2022/12/14 05:14:52;;;;;;;24.13;9.70;;;;;;;0.93;100.00;98106.00;5007564;28;20029;-83
2022/12/14 05:17:18;;;;;;;22.35;9.20;;;;;;;1.00;100.00;98090.69;5008337;28;20041;-83
2022/12/14 05:19:45;;;;;;;25.73;9.65;;;;;;;0.73;100.00;98076.22;5018106;28;20546;-82
2022/12/14 05:22:11;;;;;;;23.85;9.65;;;;;;;0.63;100.00;98053.09;5006875;28;20026;-81
2022/12/14 05:24:37;;;;;;;20.10;9.07;;;;;;;0.75;100.00;98062.19;5022194;28;20030;-81
2022/12/14 05:27:03;;;;;;;21.10;8.98;;;;;;;0.66;100.00;98084.59;5024125;28;20112;-80
2022/12/14 05:29:29;;;;;;;24.60;9.25;;;;;;;0.31;100.00;98049.41;5002093;28;20503;-80
2022/12/14 05:31:55;;;;;;;18.95;8.70;;;;;;;0.34;100.00;98057.63;5024127;28;20030;-80
2022/12/14 05:34:21;;;;;;;22.30;8.27;;;;;;;0.52;100.00;98092.91;5009638;28;20079;-81
2022/12/14 05:36:48;;;;;;;21.10;8.52;;;;;;;0.30;100.00;98050.38;4990202;28;20029;-82
2022/12/14 05:39:14;;;;;;;20.55;8.75;;;;;;;0.33;100.00;98058.59;4991503;28;20383;-84
2022/12/14 05:41:41;;;;;;;21.10;9.15;;;;;;;0.49;100.00;98090.63;5005791;28;20421;-82
2022/12/14 05:44:07;;;;;;;18.45;7.72;;;;;;;0.48;100.00;98079.47;5022698;28;20026;-83
2022/12/14 05:46:33;;;;;;;23.60;7.88;;;;;;;0.52;100.00;98077.41;5004670;28;20739;-83
2022/12/14 05:48:58;;;;;;;21.45;7.63;;;;;;;0.43;100.00;98068.81;5023190;28;20436;-83
2022/12/14 05:51:24;;;;;;;18.67;7.07;;;;;;;0.30;100.00;98064.06;5003347;28;20037;-83
2022/12/14 05:53:50;;;;;;;16.70;7.65;;;;;;;0.34;100.00;98091.19;5024665;28;20033;-83
2022/12/14 05:56:16;;;;;;;21.67;7.47;;;;;;;0.36;100.00;98081.53;5007421;28;20156;-82
2022/12/14 05:58:42;;;;;;;22.35;8.63;;;;;;;0.52;100.00;98092.91;5027503;28;20029;-83
2022/12/14 06:01:11;;;;;;;17.58;7.93;;;;;;;0.64;100.00;98080.53;5024818;28;20033;-83
2022/12/14 06:03:37;;;;;;;17.05;7.60;;;;;;;0.65;100.00;98085.56;4986402;28;20049;-81
2022/12/14 06:06:05;;;;;;;20.50;7.88;;;;;;;0.82;100.00;98083.84;5025123;28;20030;-84
2022/12/14 06:08:33;;;;;;;22.30;8.32;;;;;;;0.65;100.00;98057.16;5005678;28;20076;-83
2022/12/14 06:11:02;;;;;;;20.42;8.02;;;;;;;0.82;100.00;98089.00;5005885;28;20037;-84
2022/12/14 06:13:28;;;;;;;19.63;7.80;;;;;;;0.68;100.00;98082.66;5003732;28;20438;-83
2022/12/14 06:15:54;;;;;;;15.32;6.57;;;;;;;0.78;100.00;98081.72;5026920;28;20025;-81
2022/12/14 06:18:20;;;;;;;16.90;7.05;;;;;;;0.84;100.00;98086.28;5020505;28;20033;-82
2022/12/14 06:20:46;;;;;;;19.05;6.78;;;;;;;0.76;100.00;98083.66;5004168;28;20025;-83
2022/12/14 06:23:12;;;;;;;19.00;7.90;;;;;;;0.84;100.00;98073.38;5024170;28;20038;-82
2022/12/14 06:25:38;;;;;;;14.55;6.75;;;;;;;0.94;100.00;98092.13;5017145;28;20072;-81
2022/12/14 06:28:03;;;;;;;15.82;7.13;;;;;;;0.95;100.00;98087.78;5024199;28;20032;-80
2022/12/14 06:30:29;;;;;;;16.27;7.05;;;;;;;0.97;100.00;98065.97;5022734;28;20075;-81
2022/12/14 06:32:54;;;;;;;17.98;6.43;;;;;;;0.88;100.00;98066.91;5006372;28;20034;-82
2022/12/14 06:35:20;;;;;;;19.48;6.68;;;;;;;0.85;100.00;98057.69;5005287;28;20025;-80
2022/12/14 06:37:46;;;;;;;11.95;6.03;;;;;;;1.08;100.00;98092.50;5004906;28;20406;-81
2022/12/14 06:40:12;;;;;;;14.98;5.78;;;;;;;0.86;100.00;98063.69;5020109;28;20060;-80
2022/12/14 06:42:37;;;;;;;14.95;6.20;;;;;;;0.87;100.00;98065.31;5004825;28;20034;-81
2022/12/14 06:45:03;;;;;;;20.05;6.05;;;;;;;1.05;100.00;98085.84;5021595;28;20029;-80
2022/12/14 06:47:28;;;;;;;16.77;5.63;;;;;;;1.34;100.00;98089.00;5000385;28;20052;-80
2022/12/14 06:49:54;;;;;;;11.93;6.18;;;;;;;1.17;100.00;98065.69;5020546;28;20072;-82
2022/12/14 06:52:20;;;;;;;14.80;5.47;;;;;;;1.18;100.00;98090.59;5022584;28;20046;-81
2022/12/14 06:54:45;;;;;;;12.27;5.35;;;;;;;1.22;100.00;98075.56;5003319;28;20472;-81
2022/12/14 06:57:11;;;;;;;12.30;5.65;;;;;;;1.07;100.00;98055.50;5001502;28;20134;-82
2022/12/14 06:59:38;;;;;;;12.90;5.57;;;;;;;1.39;100.00;98079.81;5020208;28;20552;-82
2022/12/14 07:02:03;;;;;;;16.75;6.07;;;;;;;1.22;100.00;98083.31;5022352;28;20124;-83
2022/12/14 07:04:30;;;;;;;17.45;5.22;;;;;;;1.12;100.00;98062.78;4989659;28;20498;-82
2022/12/14 07:06:55;;;;;;;16.15;5.85;;;;;;;1.13;100.00;98066.97;5004385;28;20113;-81
2022/12/14 07:09:20;;;;;;;14.20;6.32;;;;;;;1.27;100.00;98094.00;5020499;28;20037;-81
2022/12/14 07:11:49;;;;;;;13.40;5.60;;;;;;;0.70;100.00;98034.25;5026124;28;20036;-82
2022/12/14 07:14:16;;;;;;;11.88;4.95;;;;;;;0.80;100.00;98064.31;5019340;28;20036;-82
2022/12/14 07:16:41;;;;;;;16.38;5.70;;;;;;;0.80;100.00;98079.81;5023269;28;20034;-83
2022/12/14 07:19:09;;;;;;;16.83;6.65;;;;;;;0.71;100.00;98066.06;5022248;28;20393;-84
2022/12/14 07:21:35;;;;;;;13.57;4.75;;;;;;;0.73;100.00;98110.63;5024666;28;20034;-84
2022/12/14 07:24:00;;;;;;;17.17;5.38;;;;;;;0.73;100.00;98105.44;5002024;28;20368;-86
2022/12/14 07:26:27;;;;;;;13.25;4.53;;;;;;;0.77;100.00;98111.09;5004882;28;20029;-83
2022/12/14 07:28:53;;;;;;;8.98;5.28;;;;;;;0.80;100.00;98096.13;4989974;28;20503;-86
2022/12/14 07:31:24;;;;;;;12.13;4.60;;;;;;;0.58;100.00;98102.63;5005839;28;20077;-86
2022/12/14 07:33:55;;;;;;;15.75;4.95;;;;;;;0.75;100.00;98115.63;5021979;28;20542;-85
2022/12/14 07:36:22;;;;;;;14.38;5.03;;;;;;;0.79;100.00;98101.44;5022646;28;20029;-87
2022/12/14 07:38:49;;;;;;;11.88;4.75;;;;;;;0.76;100.00;98106.91;4990830;28;20046;-85
2022/12/14 07:41:20;;;;;;;12.93;4.72;;;;;;;0.84;100.00;98114.72;4988665;28;20045;-85
2022/12/14 07:43:46;;;;;;;10.55;4.40;;;;;;;0.47;100.00;98084.81;4989743;28;20433;-87
2022/12/14 07:46:15;;;;;;;12.55;4.03;;;;;;;0.64;100.00;98091.69;5008016;28;20029;-87
2022/12/14 07:48:53;;;;;;;14.80;4.30;;;;;;;0.69;100.00;98106.72;5006807;28;20068;-84
2022/12/14 07:51:22;;;;;;;18.33;4.30;;;;;;;0.74;100.00;98117.41;5021841;28;20048;-86
2022/12/14 07:53:49;;;;;;;13.27;3.83;;;;;;;0.40;100.00;98082.03;4989690;28;20029;-83
2022/12/14 07:56:21;;;;;;;9.40;3.65;;;;;;;0.43;100.00;98112.69;5005274;28;20026;-81
2022/12/14 07:58:47;;;;;;;14.90;4.07;;;;;;;0.50;100.00;98120.66;5020513;28;20531;-82
2022/12/14 08:01:21;;;;;;;11.13;4.05;;;;;;;0.57;100.00;98129.41;4987515;28;20018;-85
2022/12/14 08:03:52;;;;;;;8.30;3.55;;;;;;;0.63;100.00;98126.22;4999010;28;20026;-86
2022/12/14 08:06:20;;;;;;;11.63;3.75;;;;;;;0.56;100.00;98125.19;5002556;28;20030;-84
2022/12/14 08:08:46;;;;;;;16.23;4.03;;;;;;;0.64;100.00;98121.84;5000592;28;20042;-86
2022/12/14 08:11:12;;;;;;;9.02;4.05;;;;;;;0.51;100.00;98122.28;4983716;28;20026;-87
2022/12/14 08:13:38;;;;;;;7.10;4.05;;;;;;;0.60;100.00;98146.38;4989244;28;20033;-84
2022/12/14 08:16:06;;;;;;;6.88;3.28;;;;;;;0.74;100.00;98147.56;4982929;28;20029;-84
2022/12/14 08:18:33;;;;;;;13.07;3.55;;;;;;;0.46;100.00;98134.84;4988168;28;20022;-82
2022/12/14 08:21:00;;;;;;;11.32;3.30;;;;;;;0.38;100.00;98105.41;5004175;28;20068;-87
2022/12/14 08:23:26;;;;;;;13.57;3.78;;;;;;;0.50;100.00;98144.72;5007589;28;20097;-86
2022/12/14 08:25:58;;;;;;;13.90;3.72;;;;;;;0.67;100.00;98140.44;4988094;28;20093;-86
2022/12/14 08:28:27;;;;;;;10.05;3.40;;;;;;;0.66;100.00;98156.91;5026235;28;20472;-87
2022/12/14 08:30:53;;;;;;;12.80;4.07;;;;;;;0.73;100.00;98164.03;5028348;28;20029;-89
2022/12/14 08:33:20;;;;;;;6.18;3.13;;;;;;;0.62;100.00;98154.78;5010453;28;20472;-83
2022/12/14 08:35:47;;;;;;;15.32;4.28;;;;;;;0.54;100.00;98153.78;4990770;28;20057;-80
2022/12/14 08:38:14;;;;;;;15.15;3.20;;;;;;;0.71;100.00;98157.25;5023852;28;20037;-82
2022/12/14 08:40:40;;;;;;;9.52;3.70;;;;;;;0.83;100.00;98177.69;5007082;28;20029;-81
2022/12/14 08:43:06;;;;;;;10.07;3.63;;;;;;;0.76;100.00;98163.72;5009378;28;20373;-83
2022/12/14 08:45:32;;;;;;;9.35;3.03;;;;;;;0.75;100.00;98162.94;5009458;28;20113;-83
2022/12/14 08:47:59;;;;;;;8.73;3.40;;;;;;;0.72;100.00;98171.00;5007754;28;20180;-83
2022/12/14 08:50:26;;;;;;;12.15;3.50;;;;;;;0.92;100.00;98181.91;4990324;28;20044;-81
2022/12/14 08:52:52;;;;;;;11.20;3.58;;;;;;;1.27;100.00;98179.31;4985396;28;20469;-82
2022/12/14 08:55:20;;;;;;;13.27;3.78;;;;;;;0.62;100.00;98158.19;4988322;28;20050;-82
2022/12/14 08:57:45;;;;;;;9.13;3.63;;;;;;;0.69;100.00;98164.34;5006903;28;20498;-82
2022/12/14 09:00:11;;;;;;;9.65;4.05;;;;;;;0.74;100.00;98186.31;5004753;28;20030;-81
2022/12/14 09:02:38;;;;;;;15.75;4.35;;;;;;;0.77;100.00;98184.25;5008281;28;20045;-82
2022/12/14 09:05:04;;;;;;;10.07;3.45;;;;;;;0.87;100.00;98185.91;5011858;28;20029;-82
2022/12/14 09:07:30;;;;;;;10.25;3.38;;;;;;;0.95;100.00;98191.94;4995807;28;20042;-82
2022/12/14 09:09:57;;;;;;;5.32;3.33;;;;;;;0.96;100.00;98188.38;5007120;28;20044;-82
2022/12/14 09:12:23;;;;;;;14.15;3.38;;;;;;;0.93;100.00;98162.06;5001804;28;20025;-85
2022/12/14 09:14:50;;;;;;;12.90;3.50;;;;;;;1.08;100.00;98201.06;5006390;28;20021;-82
2022/12/14 09:17:16;;;;;;;9.30;3.03;;;;;;;1.01;100.00;98192.31;5006560;28;20029;-82
2022/12/14 09:19:42;;;;;;;9.77;3.17;;;;;;;1.01;100.00;98205.22;5026675;28;20479;-84
2022/12/14 09:22:08;;;;;;;7.68;2.72;;;;;;;0.93;100.00;98198.25;5020332;28;20040;-84
2022/12/14 09:24:34;;;;;;;6.32;2.95;;;;;;;1.03;100.00;98198.13;5013046;28;20390;-85
2022/12/14 09:27:01;;;;;;;9.88;2.75;;;;;;;1.09;100.00;98210.44;5009681;28;20025;-83
2022/12/14 09:29:28;;;;;;;10.60;3.00;;;;;;;1.16;100.00;98218.38;5024802;28;20444;-86
2022/12/14 09:31:54;;;;;;;9.63;3.22;;;;;;;1.11;100.00;98200.75;5026450;28;20617;-83
2022/12/14 09:34:21;;;;;;;6.00;2.90;;;;;;;1.10;100.00;98194.78;5024571;28;20041;-85
2022/12/14 09:36:47;;;;;;;3.83;2.30;;;;;;;1.20;100.00;98201.59;5028566;28;20152;-86
2022/12/14 09:39:13;;;;;;;8.18;2.95;;;;;;;1.26;100.00;98194.03;5028217;28;20037;-85
2022/12/14 09:41:51;;;;;;;6.35;3.63;;;;;;;1.39;100.00;98203.13;5027488;28;20111;-84
2022/12/14 09:44:25;;;;;;;9.20;3.03;;;;;;;1.42;100.00;98203.63;5022943;28;20029;-85
2022/12/14 09:47:36;;;;;;;10.55;3.35;;;;;;;1.14;100.00;98208.19;5008049;28;20053;-85
2022/12/14 09:50:11;;;;;;;6.72;2.38;;;;;;;1.33;100.00;98211.50;4941974;29;20102;-83
2022/12/14 09:52:44;;;;;;;9.95;3.35;;;;;;;1.47;100.00;98221.25;5013874;28;20052;-86
2022/12/14 09:55:28;;;;;;;13.93;3.13;;;;;;;1.52;100.00;98208.66;5024485;28;20044;-84
2022/12/14 09:58:02;;;;;;;12.93;3.55;;;;;;;1.30;100.00;98184.19;5022082;28;20026;-85
2022/12/14 10:00:36;;;;;;;9.40;2.75;;;;;;;1.32;100.00;98205.53;5030456;28;20297;-85
2022/12/14 10:03:29;;;;;;;10.55;2.58;;;;;;;1.40;100.00;98215.09;5026380;28;20026;-85
2022/12/14 10:06:14;;;;;;;5.20;2.53;;;;;;;1.47;100.00;98220.44;5023867;28;20068;-84
2022/12/14 10:08:51;;;;;;;9.85;3.28;;;;;;;1.32;100.00;98207.28;4991134;28;20068;-85
2022/12/14 10:11:36;;;;;;;4.80;2.63;;;;;;;1.49;100.00;98206.41;5006328;28;20041;-86
2022/12/14 10:14:33;;;;;;;10.18;2.90;;;;;;;1.38;100.00;98212.66;5019894;28;20034;-84
2022/12/14 10:17:31;;;;;;;7.40;2.72;;;;;;;1.50;100.00;98205.44;5020955;28;20053;-82
2022/12/14 10:20:30;;;;;;;10.90;3.42;;;;;;;1.45;100.00;98212.84;5024387;28;20101;-84
2022/12/14 10:22:57;;;;;;;7.82;2.72;;;;;;;1.32;100.00;98209.88;4998569;28;20118;-83
2022/12/14 10:25:29;;;;;;;10.57;3.47;;;;;;;1.59;100.00;98233.91;5003239;28;20396;-84
2022/12/14 10:28:07;;;;;;;9.20;2.70;;;;;;;1.53;100.00;98214.66;5003474;28;20040;-81
2022/12/14 10:30:34;;;;;;;13.55;2.85;;;;;;;1.57;100.00;98213.38;5023518;28;20375;-77
2022/12/14 10:33:25;;;;;;;6.13;2.55;;;;;;;1.70;100.00;98224.09;4991541;28;20107;-78
2022/12/14 10:36:13;;;;;;;6.90;2.70;;;;;;;1.75;100.00;98213.25;4985172;28;20472;-82
2022/12/14 10:38:57;;;;;;;13.13;3.17;;;;;;;1.64;100.00;98229.06;5021686;28;20030;-85
2022/12/14 10:41:36;;;;;;;10.88;2.70;;;;;;;1.67;100.00;98221.00;5004357;28;20044;-84
2022/12/14 10:44:18;;;;;;;4.95;2.65;;;;;;;1.71;100.00;98237.81;5007121;28;20052;-83
2022/12/14 10:47:00;;;;;;;10.70;3.13;;;;;;;1.75;100.00;98233.16;5026745;28;20487;-84
2022/12/14 10:49:40;;;;;;;11.98;3.50;;;;;;;1.69;100.00;98224.25;4987939;28;20025;-83
2022/12/14 10:52:16;;;;;;;11.63;3.35;;;;;;;1.89;100.00;98229.13;5027141;28;20025;-83
2022/12/14 10:54:56;;;;;;;7.38;3.25;;;;;;;1.80;100.00;98231.72;5019145;28;20083;-82
2022/12/14 10:57:27;;;;;;;11.65;3.45;;;;;;;1.65;100.00;98222.94;4984176;28;20026;-83
2022/12/14 10:59:54;;;;;;;12.57;3.05;;;;;;;1.84;100.00;98222.66;5025562;28;20056;-84
2022/12/14 11:02:27;;;;;;;10.02;3.05;;;;;;;1.75;100.00;98227.97;4985628;28;20037;-84
2022/12/14 11:05:00;;;;;;;13.80;3.22;;;;;;;1.97;100.00;98231.75;5022251;28;20041;-86
2022/12/14 11:07:37;;;;;;;12.43;3.28;;;;;;;1.91;100.00;98222.84;5026432;28;20034;-83
2022/12/14 11:10:15;;;;;;;11.07;2.58;;;;;;;1.96;100.00;98224.94;5005064;28;20038;-81
2022/12/14 11:13:10;;;;;;;6.40;3.25;;;;;;;1.82;100.00;98195.31;5023481;28;20028;-83
2022/12/14 11:15:44;;;;;;;8.60;3.25;;;;;;;1.76;100.00;98214.88;5022496;28;20379;-86
2022/12/14 11:18:16;;;;;;;9.10;3.35;;;;;;;1.98;100.00;98220.44;5008317;28;20034;-84
2022/12/14 11:20:58;;;;;;;11.40;3.53;;;;;;;1.99;100.00;98219.47;5020532;28;20153;-83
2022/12/14 11:23:36;;;;;;;9.00;3.03;;;;;;;1.94;100.00;98211.34;5005269;28;20041;-86
2022/12/14 11:26:08;;;;;;;8.35;3.00;;;;;;;1.93;100.00;98226.09;5022653;28;20034;-84
2022/12/14 11:28:48;;;;;;;11.45;3.30;;;;;;;2.02;100.00;98229.50;5019106;28;20037;-85
2022/12/14 11:31:20;;;;;;;12.85;2.97;;;;;;;1.96;100.00;98212.81;5022973;28;20379;-85
2022/12/14 11:33:47;;;;;;;6.68;2.28;;;;;;;1.87;100.00;98218.97;5002931;28;20029;-85
2022/12/14 11:36:26;;;;;;;9.70;3.13;;;;;;;2.21;100.00;98217.22;5006066;28;20029;-81
2022/12/14 11:38:56;;;;;;;14.48;3.13;;;;;;;2.15;100.00;98213.50;5017151;28;20060;-81
2022/12/14 11:41:22;;;;;;;15.18;3.90;;;;;;;2.10;100.00;98254.59;5020938;28;20026;-81
2022/12/14 11:44:24;;;;;;;19.67;3.40;;;;;;;2.39;100.00;98230.00;5017790;28;20065;-82
2022/12/14 11:46:56;;;;;;;11.10;3.90;;;;;;;2.26;100.00;98238.25;5000497;28;20050;-81
2022/12/14 11:49:25;;;;;;;8.88;3.40;;;;;;;2.28;100.00;98236.31;5019589;28;20037;-82
2022/12/14 11:51:58;;;;;;;15.30;3.78;;;;;;;2.30;100.00;98236.97;5022516;28;20122;-82